Amado, Arizona
Current Conditions -  °F | °C
As of 4:54 PM on Sunday 23 Nov 2014 (Local Time) from KOLS Reporting Station
Clear Clear  
Wind Chill: 58°   Ceiling: Unl
Heat Index: 58°   Visibility: 10mi
Dew Point: 23°   Wind: 10mph
Humidity: 26%   Direction: 340°NNW
Pressure: 30.05"   Gusts: 17mph
Location:  31.71°N, 111.07°W
Report Text: KOLS 232354Z AUTO 34009G15KT 10SM CLR 14/M05 A3005 RMK AO2 SLP148 T01441050 10189 20144 53007
Loading
Personal Weather Stations






























Interactive Weather Map New forecast layout! Learn more

10-Day Weather Forecast

Advertisements
Track Severe Weather on mobile